createdAt,value
2018-06-29T00:00:27.700Z,42.90
2018-06-29T00:02:56.955Z,43.00
2018-06-29T00:05:27.048Z,43.00
2018-06-29T00:07:55.656Z,43.10
2018-06-29T00:10:25.412Z,43.60
2018-06-29T00:12:56.043Z,43.50
2018-06-29T00:15:24.821Z,43.60
2018-06-29T00:17:53.344Z,43.60
2018-06-29T00:20:21.839Z,43.80
2018-06-29T00:22:50.424Z,43.70
2018-06-29T00:25:18.990Z,43.90
2018-06-29T00:27:47.496Z,44.10
2018-06-29T00:30:16.091Z,44.30
2018-06-29T00:32:44.619Z,44.40
2018-06-29T00:35:13.102Z,44.30
2018-06-29T00:37:41.690Z,44.40
2018-06-29T00:40:10.201Z,44.40
2018-06-29T00:42:38.732Z,44.40
2018-06-29T00:45:07.256Z,44.60
2018-06-29T00:47:35.824Z,44.70
2018-06-29T00:50:05.044Z,44.80
2018-06-29T00:52:33.564Z,44.80
2018-06-29T00:55:02.089Z,44.80
2018-06-29T00:57:30.592Z,45.10
2018-06-29T00:59:59.172Z,45.10
2018-06-29T01:02:27.705Z,45.30
2018-06-29T01:04:56.384Z,45.30
2018-06-29T01:07:25.525Z,45.30
2018-06-29T01:09:54.224Z,45.50
2018-06-29T01:12:22.715Z,45.30
2018-06-29T01:14:51.255Z,45.40
2018-06-29T01:17:19.816Z,45.30
2018-06-29T01:19:48.310Z,45.50
2018-06-29T01:22:16.810Z,45.50
2018-06-29T01:27:13.611Z,45.30
2018-06-29T01:29:43.207Z,45.30
2018-06-29T01:32:11.769Z,45.30
2018-06-29T01:34:40.408Z,45.20
2018-06-29T01:37:08.944Z,45.30
2018-06-29T01:39:37.459Z,45.30
2018-06-29T01:42:06.042Z,45.30
2018-06-29T01:44:34.579Z,45.50
2018-06-29T01:47:03.116Z,45.50
2018-06-29T01:49:31.896Z,45.70
2018-06-29T01:52:00.436Z,45.70
2018-06-29T01:54:30.001Z,45.80
2018-06-29T01:56:58.524Z,45.90
2018-06-29T01:59:27.030Z,45.90
2018-06-29T02:01:56.337Z,46.00
2018-06-29T02:04:25.357Z,46.00
2018-06-29T02:06:54.912Z,46.30
2018-06-29T02:09:23.503Z,46.70
2018-06-29T02:11:52.253Z,46.80
2018-06-29T02:16:49.936Z,47.00
2018-06-29T02:19:18.449Z,47.00
2018-06-29T02:21:47.216Z,47.10
2018-06-29T02:24:15.843Z,47.30
2018-06-29T02:26:44.424Z,47.30
2018-06-29T02:29:12.964Z,47.30
2018-06-29T02:31:41.449Z,47.50
2018-06-29T02:34:10.010Z,47.60
2018-06-29T02:36:39.064Z,47.70
2018-06-29T02:39:09.721Z,47.80
2018-06-29T02:44:06.928Z,47.80
2018-06-29T02:46:36.722Z,48.00
2018-06-29T02:49:05.358Z,48.10
2018-06-29T02:51:33.993Z,48.30
2018-06-29T02:54:02.505Z,48.20
2018-06-29T02:56:31.047Z,48.10
2018-06-29T03:01:27.667Z,48.30
2018-06-29T03:03:57.208Z,48.20
2018-06-29T03:06:29.422Z,48.10
2018-06-29T03:08:57.972Z,48.30
2018-06-29T03:11:27.080Z,48.40
2018-06-29T03:13:55.655Z,48.60
2018-06-29T03:16:24.231Z,48.80
2018-06-29T03:18:52.702Z,49.00
2018-06-29T03:21:21.211Z,49.20
2018-06-29T03:23:49.755Z,49.30
2018-06-29T03:26:19.170Z,49.40
2018-06-29T03:28:50.872Z,49.80
2018-06-29T03:31:19.440Z,49.90
2018-06-29T03:33:48.035Z,50.00
2018-06-29T03:36:19.147Z,50.00
2018-06-29T03:38:47.637Z,50.00
2018-06-29T03:41:16.145Z,50.10
2018-06-29T03:43:48.645Z,50.40
2018-06-29T03:46:17.127Z,50.50
2018-06-29T03:48:48.112Z,50.40
2018-06-29T03:51:16.588Z,50.40
2018-06-29T03:53:45.103Z,50.80
2018-06-29T03:56:13.709Z,50.90
2018-06-29T03:58:42.157Z,50.90
2018-06-29T04:01:10.716Z,50.90
2018-06-29T04:03:39.221Z,50.90
2018-06-29T04:06:07.985Z,51.10
2018-06-29T04:08:36.505Z,51.00
2018-06-29T04:11:05.006Z,50.90
2018-06-29T04:16:01.661Z,51.10
2018-06-29T04:18:31.817Z,51.30
2018-06-29T04:21:00.393Z,50.90
2018-06-29T04:23:28.979Z,50.90
2018-06-29T04:25:57.504Z,50.90
2018-06-29T04:28:26.020Z,51.00
2018-06-29T04:30:54.500Z,51.10
2018-06-29T04:33:24.251Z,51.30
2018-06-29T04:35:52.798Z,51.30
2018-06-29T04:38:22.024Z,51.30
2018-06-29T04:40:50.503Z,51.40
2018-06-29T04:43:20.090Z,51.30
2018-06-29T04:45:48.725Z,51.30
2018-06-29T04:48:17.236Z,51.40
2018-06-29T04:50:45.780Z,51.40
2018-06-29T04:53:14.303Z,51.20
2018-06-29T04:55:42.811Z,51.10
2018-06-29T04:58:11.405Z,50.90
2018-06-29T05:00:39.971Z,50.90
2018-06-29T05:03:08.495Z,50.90
2018-06-29T05:05:37.069Z,51.30
2018-06-29T05:08:05.532Z,51.30
2018-06-29T05:10:34.221Z,51.20
2018-06-29T05:13:02.759Z,51.20
2018-06-29T05:15:32.513Z,51.30
2018-06-29T05:18:00.896Z,51.20
2018-06-29T05:20:29.596Z,51.10
2018-06-29T05:22:58.040Z,50.90
2018-06-29T05:25:26.616Z,50.70
2018-06-29T05:27:55.487Z,49.90
2018-06-29T05:30:23.939Z,47.50
2018-06-29T05:32:52.433Z,42.00
2018-06-29T05:35:22.679Z,36.80
2018-06-29T05:37:54.260Z,32.90
2018-06-29T05:40:22.799Z,30.90
2018-06-29T05:45:22.819Z,26.40
2018-06-29T05:47:53.617Z,25.40
2018-06-29T05:52:51.527Z,23.50
2018-06-29T05:55:24.210Z,23.10
2018-06-29T05:57:52.836Z,22.50
2018-06-29T06:00:22.707Z,21.80
2018-06-29T06:02:51.174Z,21.60
2018-06-29T06:05:20.247Z,21.10
2018-06-29T06:07:48.767Z,20.80
2018-06-29T06:10:17.283Z,20.40
2018-06-29T06:12:45.776Z,20.10
2018-06-29T06:15:14.377Z,19.60
2018-06-29T06:17:43.031Z,19.30
2018-06-29T06:20:14.436Z,19.00
2018-06-29T06:22:44.427Z,19.00
2018-06-29T06:25:13.304Z,18.30
2018-06-29T06:27:42.181Z,18.10
2018-06-29T06:30:11.378Z,18.10
2018-06-29T06:32:40.803Z,18.00
2018-06-29T06:35:09.369Z,18.00
2018-06-29T06:37:37.940Z,18.00
2018-06-29T06:40:07.328Z,17.50
2018-06-29T06:42:36.394Z,17.40
2018-06-29T06:45:05.737Z,18.00
2018-06-29T06:47:34.526Z,18.10
2018-06-29T06:50:04.252Z,18.20
2018-06-29T06:52:33.235Z,18.00
2018-06-29T06:55:01.739Z,18.00
2018-06-29T06:57:30.355Z,18.10
2018-06-29T07:04:56.382Z,18.70
2018-06-29T07:07:24.976Z,19.20
2018-06-29T07:09:53.646Z,19.80
2018-06-29T07:12:23.594Z,20.50
2018-06-29T07:14:52.787Z,21.60
2018-06-29T07:17:21.277Z,23.00
2018-06-29T07:19:50.211Z,24.60
2018-06-29T07:22:19.661Z,26.50
2018-06-29T07:24:48.530Z,28.80
2018-06-29T07:27:19.990Z,30.00
2018-06-29T07:29:48.815Z,31.60
2018-06-29T07:32:17.324Z,32.70
2018-06-29T07:34:46.141Z,32.80
2018-06-29T07:37:15.107Z,34.60
2018-06-29T07:39:43.844Z,35.60
2018-06-29T07:42:12.402Z,36.30
2018-06-29T07:44:41.841Z,36.90
2018-06-29T07:47:10.759Z,36.90
2018-06-29T07:49:39.307Z,37.00
2018-06-29T07:52:08.023Z,37.00
2018-06-29T07:54:38.945Z,37.60
2018-06-29T07:57:07.467Z,37.70
2018-06-29T07:59:36.171Z,37.20
2018-06-29T08:02:04.792Z,37.60
2018-06-29T08:04:33.379Z,37.70
2018-06-29T08:07:02.240Z,38.00
2018-06-29T08:09:30.805Z,37.60
2018-06-29T08:11:59.393Z,37.60
2018-06-29T08:14:28.403Z,37.40
2018-06-29T08:19:25.787Z,37.60
2018-06-29T08:21:54.275Z,37.60
2018-06-29T08:24:22.825Z,37.80
2018-06-29T08:26:51.564Z,37.60
2018-06-29T08:29:20.176Z,37.70
2018-06-29T08:31:48.897Z,37.60
2018-06-29T08:34:17.394Z,37.80
2018-06-29T08:36:47.131Z,37.40
2018-06-29T08:39:16.773Z,37.30
2018-06-29T08:41:45.295Z,36.90
2018-06-29T08:44:14.010Z,37.00
2018-06-29T08:46:42.748Z,36.20
2018-06-29T08:49:11.181Z,36.20
2018-06-29T08:51:40.984Z,36.20
2018-06-29T08:54:09.590Z,35.90
2018-06-29T08:56:39.157Z,35.90
2018-06-29T08:59:07.921Z,36.00
2018-06-29T09:01:36.491Z,36.00
2018-06-29T09:04:05.031Z,35.50
2018-06-29T09:06:33.544Z,35.80
2018-06-29T09:09:02.339Z,35.10
2018-06-29T09:11:30.899Z,35.20
2018-06-29T09:14:00.759Z,34.60
2018-06-29T09:16:29.455Z,34.50
2018-06-29T09:18:58.263Z,34.10
2018-06-29T09:21:27.200Z,34.30
2018-06-29T09:23:55.743Z,34.00
2018-06-29T09:26:24.507Z,34.10
2018-06-29T09:28:54.323Z,33.90
2018-06-29T09:31:22.821Z,33.90
2018-06-29T09:33:52.391Z,33.70
2018-06-29T09:36:21.960Z,33.70
2018-06-29T09:38:50.506Z,33.70
2018-06-29T09:41:20.628Z,33.20
2018-06-29T09:43:49.696Z,32.50
2018-06-29T09:46:18.302Z,32.70
2018-06-29T09:48:46.795Z,32.90
2018-06-29T09:51:15.363Z,32.90
2018-06-29T09:53:44.288Z,32.70
2018-06-29T09:56:13.135Z,32.70
2018-06-29T09:58:41.965Z,32.70
2018-06-29T10:01:10.595Z,33.00
2018-06-29T10:03:39.609Z,32.70
2018-06-29T10:06:08.140Z,32.20
2018-06-29T10:08:36.711Z,32.10
2018-06-29T10:11:05.472Z,32.20
2018-06-29T10:13:34.008Z,31.80
2018-06-29T10:16:02.505Z,32.20
2018-06-29T10:18:31.061Z,32.50
2018-06-29T10:20:59.585Z,32.30
2018-06-29T10:23:28.052Z,32.20
2018-06-29T10:25:56.946Z,32.00
2018-06-29T10:28:25.446Z,32.00
2018-06-29T10:30:54.016Z,32.20
2018-06-29T10:33:22.624Z,32.20
2018-06-29T10:35:51.110Z,32.00
2018-06-29T10:38:20.232Z,32.00
2018-06-29T10:40:48.775Z,31.90
2018-06-29T10:43:17.294Z,31.50
2018-06-29T10:45:45.771Z,31.50
2018-06-29T10:48:14.251Z,31.30
2018-06-29T10:50:42.752Z,31.40
2018-06-29T10:53:11.288Z,31.40
2018-06-29T10:55:39.861Z,31.20
2018-06-29T10:58:08.832Z,31.30
2018-06-29T11:00:37.433Z,31.30
2018-06-29T11:03:05.902Z,31.20
2018-06-29T11:05:34.530Z,31.00
2018-06-29T11:08:03.027Z,30.40
2018-06-29T11:10:31.595Z,29.80
2018-06-29T11:13:00.696Z,30.00
2018-06-29T11:15:29.181Z,29.80
2018-06-29T11:17:57.724Z,29.70
2018-06-29T11:20:26.192Z,29.70
2018-06-29T11:22:54.692Z,29.50
2018-06-29T11:25:23.240Z,29.20
2018-06-29T11:27:51.798Z,28.70
2018-06-29T11:30:22.490Z,28.50
2018-06-29T11:32:51.025Z,28.50
2018-06-29T11:35:19.644Z,28.70
2018-06-29T11:37:48.235Z,28.90
2018-06-29T11:40:16.875Z,28.70
2018-06-29T11:42:45.367Z,28.00
2018-06-29T11:45:13.947Z,28.10
2018-06-29T11:47:42.511Z,28.10
2018-06-29T11:50:11.108Z,27.90
2018-06-29T11:52:39.887Z,27.60
2018-06-29T11:55:09.431Z,27.90
2018-06-29T11:57:37.933Z,27.60
2018-06-29T12:00:06.600Z,27.50
2018-06-29T12:02:35.181Z,27.30
2018-06-29T12:05:04.530Z,27.30
2018-06-29T12:07:33.132Z,27.00
2018-06-29T12:10:01.780Z,27.40
2018-06-29T12:12:30.351Z,27.50
2018-06-29T12:14:59.950Z,27.60
2018-06-29T12:17:28.370Z,27.70
2018-06-29T12:19:56.892Z,27.90
2018-06-29T12:22:25.409Z,27.80
2018-06-29T12:27:22.169Z,27.50
2018-06-29T12:29:50.703Z,27.40
2018-06-29T12:32:19.273Z,27.80
2018-06-29T12:34:47.898Z,27.10
2018-06-29T12:37:16.616Z,27.50
2018-06-29T12:39:45.170Z,28.00
2018-06-29T12:42:13.754Z,27.90
2018-06-29T12:44:42.335Z,28.00
2018-06-29T12:49:39.184Z,27.30
2018-06-29T12:52:07.770Z,27.40
2018-06-29T12:54:36.251Z,27.40
2018-06-29T12:57:05.148Z,27.70
2018-06-29T12:59:34.532Z,27.40
2018-06-29T13:02:03.091Z,27.40
2018-06-29T13:04:31.668Z,27.20
2018-06-29T13:07:00.937Z,26.60
2018-06-29T13:09:29.494Z,27.10
2018-06-29T13:11:58.032Z,27.30
2018-06-29T13:14:26.653Z,27.30
2018-06-29T13:16:55.184Z,27.40
2018-06-29T13:19:24.036Z,27.40
2018-06-29T13:21:53.695Z,27.40
2018-06-29T13:24:22.420Z,27.50
2018-06-29T13:26:50.972Z,27.40
2018-06-29T13:29:20.199Z,27.40
2018-06-29T13:31:52.323Z,27.40
2018-06-29T13:34:21.060Z,27.50
2018-06-29T13:36:50.296Z,27.70
2018-06-29T13:39:19.025Z,27.40
2018-06-29T13:41:47.524Z,27.60
2018-06-29T13:44:16.241Z,27.50
2018-06-29T13:46:44.688Z,27.50
2018-06-29T13:49:13.175Z,27.50
2018-06-29T13:51:42.628Z,27.40
2018-06-29T14:00:02.033Z,27.60
2018-06-29T14:04:17.211Z,27.60
2018-06-29T14:27:22.737Z,29.20
2018-06-29T14:29:51.447Z,28.80
2018-06-29T14:32:20.347Z,28.50
2018-06-29T14:34:49.498Z,28.50
2018-06-29T14:39:46.489Z,28.00
2018-06-29T14:42:16.405Z,28.00
2018-06-29T14:44:45.106Z,28.00
2018-06-29T14:47:13.770Z,27.60
2018-06-29T14:49:42.607Z,27.70
2018-06-29T14:52:11.335Z,28.30
2018-06-29T14:57:08.437Z,28.20
2018-06-29T14:59:37.424Z,28.20
2018-06-29T15:02:06.793Z,28.10
2018-06-29T15:04:35.644Z,28.10
2018-06-29T15:07:05.189Z,27.80
2018-06-29T15:09:34.262Z,28.10
2018-06-29T15:12:03.534Z,28.20
2018-06-29T15:14:32.543Z,28.70
2018-06-29T15:17:05.681Z,28.30
2018-06-29T15:19:34.688Z,28.30
2018-06-29T15:22:03.747Z,28.00
2018-06-29T15:24:32.534Z,28.00
2018-06-29T15:27:01.368Z,28.00
2018-06-29T15:29:30.139Z,28.00
2018-06-29T15:32:00.116Z,27.90
2018-06-29T15:36:57.538Z,28.60
2018-06-29T15:39:26.412Z,27.70
2018-06-29T15:41:55.432Z,27.80
2018-06-29T15:44:23.989Z,27.60
2018-06-29T15:46:52.932Z,27.60
2018-06-29T15:49:21.624Z,27.70
2018-06-29T15:51:50.324Z,27.80
2018-06-29T15:54:19.929Z,27.50
2018-06-29T15:59:21.938Z,27.30
2018-06-29T16:02:07.422Z,27.10
2018-06-29T16:04:39.285Z,27.20
2018-06-29T16:07:10.482Z,27.20
2018-06-29T16:14:59.327Z,27.90
2018-06-29T16:17:27.967Z,27.00
2018-06-29T16:22:24.832Z,27.30
2018-06-29T16:24:53.504Z,28.00
2018-06-29T16:32:20.693Z,27.40
2018-06-29T16:37:18.310Z,27.60
2018-06-29T16:39:47.899Z,27.50
2018-06-29T16:44:22.660Z,27.80
2018-06-29T16:46:51.251Z,27.80
2018-06-29T16:49:19.869Z,28.10
2018-06-29T16:51:48.481Z,28.10
2018-06-29T16:54:17.070Z,28.30
2018-06-29T16:56:45.725Z,28.20
2018-06-29T17:01:42.700Z,28.10
2018-06-29T17:04:22.093Z,28.10
2018-06-29T17:06:53.258Z,28.40
2018-06-29T17:09:25.239Z,28.30
2018-06-29T17:11:55.462Z,28.30
2018-06-29T17:14:27.800Z,28.40
2018-06-29T17:16:58.288Z,28.50
2018-06-29T17:19:26.947Z,28.50
2018-06-29T17:21:55.683Z,28.60
2018-06-29T17:24:24.210Z,28.70
2018-06-29T17:26:52.828Z,28.80
2018-06-29T17:29:22.902Z,29.10
2018-06-29T17:31:54.339Z,29.20
2018-06-29T17:34:30.171Z,29.50
2018-06-29T17:36:58.970Z,29.60
2018-06-29T17:39:27.771Z,29.50
2018-06-29T17:41:56.612Z,29.60
2018-06-29T17:44:25.348Z,29.60
2018-06-29T17:51:52.893Z,29.50
2018-06-29T17:54:22.012Z,29.70
2018-06-29T17:56:50.700Z,29.60
2018-06-29T17:59:19.516Z,29.70
2018-06-29T18:04:18.510Z,29.80
2018-06-29T18:09:15.943Z,29.70
2018-06-29T18:11:45.600Z,29.70
2018-06-29T18:16:42.335Z,29.70
2018-06-29T18:19:10.931Z,29.80
2018-06-29T18:21:39.486Z,29.90
2018-06-29T18:24:08.164Z,29.80
2018-06-29T18:26:36.706Z,29.90
2018-06-29T18:29:05.926Z,29.90
2018-06-29T18:31:35.077Z,29.90
2018-06-29T18:36:32.033Z,29.90
2018-06-29T18:39:00.734Z,30.00
2018-06-29T18:41:29.303Z,30.00
2018-06-29T18:43:58.128Z,30.00
2018-06-29T18:46:26.696Z,30.20
2018-06-29T18:48:55.251Z,30.50
2018-06-29T18:51:24.592Z,30.60
2018-06-29T18:53:53.116Z,30.00
2018-06-29T18:56:21.662Z,30.70
2018-06-29T18:58:51.288Z,30.90
2018-06-29T19:01:19.881Z,31.10
2018-06-29T19:03:48.979Z,31.20
2018-06-29T19:06:17.643Z,32.10
2018-06-29T19:08:46.297Z,31.30
2018-06-29T19:11:15.147Z,31.30
2018-06-29T19:13:43.747Z,31.50
2018-06-29T19:16:15.366Z,31.30
2018-06-29T19:18:49.177Z,31.20
2018-06-29T19:21:18.394Z,31.40
2018-06-29T19:24:07.393Z,31.80
2018-06-29T19:26:36.051Z,31.50
2018-06-29T19:29:04.744Z,31.70
2018-06-29T19:31:33.401Z,31.50
2018-06-29T19:34:03.259Z,31.50
2018-06-29T19:36:31.908Z,31.30
2018-06-29T19:39:01.980Z,31.30
2018-06-29T19:41:30.639Z,31.30
2018-06-29T19:43:59.269Z,31.40
2018-06-29T19:46:27.968Z,31.40
2018-06-29T19:48:58.059Z,31.00
2018-06-29T19:51:26.571Z,31.00
2018-06-29T19:53:55.340Z,31.20
2018-06-29T19:56:24.756Z,31.10
2018-06-29T19:58:53.493Z,31.10
2018-06-29T20:01:22.028Z,31.10
2018-06-29T20:03:52.112Z,31.30
2018-06-29T20:06:24.297Z,31.40
2018-06-29T20:08:53.304Z,31.60
2018-06-29T20:11:22.016Z,31.60
2018-06-29T20:13:50.987Z,32.00
2018-06-29T20:16:20.294Z,31.80
2018-06-29T20:18:53.401Z,31.80
2018-06-29T20:21:22.330Z,32.00
2018-06-29T20:23:51.544Z,32.80
2018-06-29T20:26:21.299Z,32.20
2018-06-29T20:28:50.189Z,32.30
2018-06-29T20:31:19.076Z,32.40
2018-06-29T20:33:48.860Z,32.30
2018-06-29T20:36:32.236Z,33.00
2018-06-29T20:39:04.709Z,32.30
2018-06-29T20:41:38.645Z,32.30
2018-06-29T20:45:01.201Z,32.70
2018-06-29T20:47:31.227Z,32.50
2018-06-29T20:50:05.124Z,32.80
2018-06-29T20:52:44.786Z,33.00
2018-06-29T20:55:13.971Z,33.00
2018-06-29T21:00:33.036Z,33.30
2018-06-29T21:03:08.809Z,33.30
2018-06-29T21:05:54.511Z,33.40
2018-06-29T21:08:30.469Z,33.60
2018-06-29T21:11:04.441Z,34.00
2018-06-29T21:13:39.502Z,34.40
2018-06-29T21:16:08.070Z,34.60
2018-06-29T21:18:36.834Z,35.20
2018-06-29T21:21:07.067Z,35.30
2018-06-29T21:23:35.638Z,35.50
2018-06-29T21:26:04.555Z,35.70
2018-06-29T21:28:48.958Z,36.30
2018-06-29T21:31:19.754Z,36.60
2018-06-29T21:36:17.843Z,38.20
2018-06-29T21:41:18.028Z,38.80
2018-06-29T21:43:48.934Z,39.10
2018-06-29T21:46:17.880Z,39.30
2018-06-29T21:48:50.508Z,39.40
2018-06-29T21:51:23.405Z,39.60
2018-06-29T21:53:59.308Z,39.90
2018-06-29T21:56:28.653Z,40.10
2018-06-29T21:58:57.717Z,40.60
2018-06-29T22:03:55.151Z,41.20
2018-06-29T22:06:23.803Z,42.00
2018-06-29T22:08:54.045Z,42.40
2018-06-29T22:11:22.831Z,42.60
2018-06-29T22:13:56.709Z,42.60
2018-06-29T22:16:25.294Z,43.10
2018-06-29T22:18:54.075Z,43.20
2018-06-29T22:21:22.651Z,43.50
2018-06-29T22:23:51.257Z,43.80
2018-06-29T22:26:20.447Z,43.80
2018-06-29T22:31:17.345Z,44.30
2018-06-29T22:33:46.119Z,44.10
2018-06-29T22:36:14.721Z,44.60
2018-06-29T22:38:43.304Z,44.70
2018-06-29T22:41:11.851Z,44.90
2018-06-29T22:43:40.620Z,45.10
2018-06-29T22:48:37.495Z,45.30
2018-06-29T22:51:06.326Z,45.40
2018-06-29T22:53:34.950Z,45.70
2018-06-29T22:56:03.552Z,45.80
2018-06-29T22:58:32.284Z,46.10
2018-06-29T23:01:01.162Z,46.00
2018-06-29T23:03:35.140Z,46.30
2018-06-29T23:06:03.827Z,46.40
2018-06-29T23:08:32.553Z,46.50
2018-06-29T23:11:01.198Z,46.50
2018-06-29T23:13:33.377Z,46.60
2018-06-29T23:16:02.031Z,47.40
2018-06-29T23:18:30.680Z,46.90
2018-06-29T23:20:59.552Z,46.90
2018-06-29T23:23:28.253Z,47.00
2018-06-29T23:25:56.979Z,47.20
2018-06-29T23:28:25.633Z,47.30
2018-06-29T23:30:54.686Z,47.40
2018-06-29T23:33:23.313Z,47.40
2018-06-29T23:35:51.930Z,47.70
2018-06-29T23:40:49.099Z,47.80
2018-06-29T23:43:17.835Z,48.00
2018-06-29T23:45:46.472Z,47.90
2018-06-29T23:48:15.075Z,48.00
2018-06-29T23:50:43.683Z,48.00
2018-06-29T23:53:13.558Z,48.00
2018-06-29T23:55:42.202Z,48.20
2018-06-29T23:58:10.874Z,48.20
